Hamaritha — PF2437 — position and weather

sailwx.info

Track history (hours):
 
Tides and Currents Weather Stations Pressure Air Temp Water Temp Dewpoint Dewpoint Depression Visibility Wind Speed Wind Dir Waves Ship Positions

Hamaritha

Last reported at 2018-Apr-26 09:26 UTC. Time now 2018-Apr-26 09:37 UTC.
Position N 51°22' E 006°40'.

Length 86 m.

Type: Ship. MMSI: 244700691.

Date/timePositionNaut miles runAvg speedWind from/ knotsBaromVisibWave heightAir tempDewpointWater temp
2018-Apr-26 09:26N 51°22' E 006°40'2 4.4
2018-Apr-26 09:00N 51°23' E 006°43'2 4.3
2018-Apr-26 08:29N 51°25' E 006°44'2 4.5
2018-Apr-26 08:00N 51°27' E 006°43'2 3.4
2018-Apr-26 07:30N 51°28' E 006°42'2 3.1
2018-Apr-26 07:00N 51°30' E 006°42'2 3.4
2018-Apr-26 06:30N 51°31' E 006°42'2 4.0
2018-Apr-26 06:00N 51°33' E 006°41'2 3.5
2018-Apr-26 05:30N 51°35' E 006°39'2 4.0
2018-Apr-26 04:59N 51°34' E 006°36'2 5.1
2018-Apr-26 04:30N 51°37' E 006°35'2 4.5
2018-Apr-26 04:00N 51°39' E 006°36'2 4.5
2018-Apr-26 03:30N 51°40' E 006°32'2 4.9
2018-Apr-26 03:00N 51°40' E 006°29'1 2.0
2018-Apr-26 02:30N 51°41' E 006°28'0 0.0
2018-Apr-26 01:58N 51°41' E 006°28'0 0.0
2018-Apr-26 01:30N 51°41' E 006°28'0 0.0
2018-Apr-26 01:00N 51°41' E 006°28'0 0.0
2018-Apr-26 00:26N 51°41' E 006°28'0 0.0
2018-Apr-25 23:59N 51°41' E 006°28'0 0.0
2018-Apr-25 23:30N 51°41' E 006°28'0 0.0
2018-Apr-25 22:57N 51°41' E 006°28'0 0.0
2018-Apr-25 22:30N 51°41' E 006°28'0 0.0
2018-Apr-25 22:00N 51°41' E 006°28'0 0.0
2018-Apr-25 21:30N 51°41' E 006°28'0 0.0
2018-Apr-25 21:00N 51°41' E 006°28'0 0.5
2018-Apr-25 20:26N 51°41' E 006°28'11 4.4
2018-Apr-25 17:50N 51°49' E 006°15'2 5.0
2018-Apr-25 17:30N 51°50' E 006°13'2 4.8
2018-Apr-25 17:00N 51°51' E 006°09'3 5.3
2018-Apr-25 16:30N 51°51' E 006°05'3 5.7
2018-Apr-25 16:00N 51°53' E 006°01'3 4.3
2018-Apr-25 15:20N 51°52' E 005°57'31 4.1
2018-Apr-25 07:46N 51°22' E 006°09'2 6.5
2018-Apr-25 07:30N 51°21' E 006°07'1 2.5
2018-Apr-25 06:56N 51°19' E 006°07'3 7.1
2018-Apr-25 06:30N 51°17' E 006°03'3 6.3
2018-Apr-25 06:00N 51°15' E 006°00'3 7.0
2018-Apr-25 05:30N 51°12' E 005°57'2 3.4
2018-Apr-25 05:00N 51°11' E 005°55'3 3.8
2018-Apr-25 04:20N 51°08' E 005°53'1 2.0
2018-Apr-25 04:00N 51°08' E 005°52'15 1.8
2018-Apr-24 19:56N 50°54' E 005°43'2 5.3
2018-Apr-24 19:30N 50°52' E 005°42'5 4.8
2018-Apr-24 18:34N 50°48' E 005°41'0 0.0
2018-Apr-24 18:30N 50°48' E 005°41'0 0.4
2018-Apr-24 17:50N 50°47' E 005°41'0 0.0
2018-Apr-24 17:29N 50°47' E 005°41'1 0.0
2018-Apr-23 16:38N 50°48' E 005°41'1 5.7
2018-Apr-23 16:30N 50°49' E 005°42'4 6.8
2018-Apr-23 15:53N 50°53' E 005°42'13 5.3
2018-Apr-23 13:26N 51°05' E 005°50'3 8.0
2018-Apr-23 13:00N 51°08' E 005°52'1 2.0
2018-Apr-23 12:27N 51°09' E 005°53'2 3.9
2018-Apr-23 11:54N 51°11' E 005°55'3 6.7
2018-Apr-23 11:30N 51°13' E 005°58'4 7.2
2018-Apr-23 11:00N 51°16' E 006°01'4 7.0
2018-Apr-23 10:30N 51°18' E 006°05'3 4.3
2018-Apr-23 09:55N 51°20' E 006°07'28 5.5
2018-Apr-23 04:48N 51°45' E 005°47'2 5.6
2018-Apr-23 04:30N 51°46' E 005°44'0 0.2
2018-Apr-23 04:00N 51°46' E 005°44'0 0.0
2018-Apr-23 03:30N 51°46' E 005°44'0 0.0
2018-Apr-23 03:00N 51°46' E 005°44'0 0.0
2018-Apr-23 02:30N 51°46' E 005°44'0 0.0
2018-Apr-23 02:00N 51°46' E 005°44'0 0.0
2018-Apr-23 01:30N 51°46' E 005°44'0 0.0
2018-Apr-23 01:00N 51°46' E 005°44'0 0.0
2018-Apr-23 00:29N 51°46' E 005°44'0 0.0
2018-Apr-23 00:00N 51°46' E 005°44'0 0.0
2018-Apr-22 23:30N 51°46' E 005°44'0 0.0
2018-Apr-22 23:00N 51°46' E 005°44'0 0.0
2018-Apr-22 22:30N 51°46' E 005°44'0 0.0
2018-Apr-22 22:00N 51°46' E 005°44'0 0.0
2018-Apr-22 21:30N 51°46' E 005°44'0 0.0
2018-Apr-22 21:00N 51°46' E 005°44'0 0.0
2018-Apr-22 20:22N 51°46' E 005°44'0 0.0
2018-Apr-22 20:00N 51°46' E 005°44'0 0.0
2018-Apr-22 19:16N 51°46' E 005°44'0 0.0
2018-Apr-22 18:52N 51°46' E 005°44'0 0.0
2018-Apr-22 18:22N 51°46' E 005°44'0 0.0
2018-Apr-22 17:59N 51°46' E 005°44'0 0.0
2018-Apr-22 17:23N 51°46' E 005°44'0 0.0
2018-Apr-22 16:44N 51°46' E 005°44'0 0.0
2018-Apr-22 16:27N 51°46' E 005°44'0 0.0
2018-Apr-22 16:00N 51°46' E 005°44'0 0.0
2018-Apr-22 15:29N 51°46' E 005°44'0 0.0
2018-Apr-22 15:00N 51°46' E 005°44'0 0.0
2018-Apr-22 14:25N 51°46' E 005°44'0 0.0
2018-Apr-22 13:56N 51°46' E 005°44'0 0.0
2018-Apr-22 13:28N 51°46' E 005°44'0 0.0
2018-Apr-22 12:51N 51°46' E 005°44'0 0.0
2018-Apr-22 12:30N 51°46' E 005°44'0 0.0
2018-Apr-22 11:52N 51°46' E 005°44'0 0.0
2018-Apr-22 11:26N 51°46' E 005°44'0 0.0
2018-Apr-22 04:45N 51°46' E 005°44'0 0.0
2018-Apr-22 04:30N 51°46' E 005°44'0 0.0
2018-Apr-22 04:00N 51°46' E 005°44'0 0.0
2018-Apr-22 03:30N 51°46' E 005°44'0 0.0
2018-Apr-22 03:00N 51°46' E 005°44'0 0.0
2018-Apr-22 02:30N 51°46' E 005°44'0 0.0
2018-Apr-22 02:00N 51°46' E 005°44'0 0.0
2018-Apr-22 01:30N 51°46' E 005°44'0 0.0
2018-Apr-22 01:00N 51°46' E 005°44'0 0.0
2018-Apr-22 00:30N 51°46' E 005°44'0 0.0
2018-Apr-21 23:59N 51°46' E 005°44'0 0.0
2018-Apr-21 23:30N 51°46' E 005°44'0 0.0
2018-Apr-21 23:00N 51°46' E 005°44'0 0.0
2018-Apr-21 22:19N 51°46' E 005°44'0 0.0
2018-Apr-21 22:00N 51°46' E 005°44'0 0.0
2018-Apr-21 21:30N 51°46' E 005°44'0 0.0
2018-Apr-21 20:59N 51°46' E 005°44'0 0.0
2018-Apr-21 19:59N 51°46' E 005°44'0 0.0
2018-Apr-21 19:30N 51°46' E 005°44'0 0.0
2018-Apr-21 18:50N 51°46' E 005°44'0 0.0
2018-Apr-21 18:30N 51°46' E 005°44'0 0.0
2018-Apr-21 17:58N 51°46' E 005°44'0 0.0
2018-Apr-21 17:29N 51°46' E 005°44'0 0.0
2018-Apr-21 16:56N 51°46' E 005°44'0 0.0
2018-Apr-21 16:26N 51°46' E 005°44'0 0.0
2018-Apr-21 15:54N 51°46' E 005°44'0 0.0
2018-Apr-21 15:28N 51°46' E 005°44'0 0.0
2018-Apr-21 14:52N 51°46' E 005°44'0 0.0
2018-Apr-21 14:25N 51°46' E 005°44'0 0.0
2018-Apr-21 13:58N 51°46' E 005°44'0 0.0
2018-Apr-21 13:28N 51°46' E 005°44'0 0.0
2018-Apr-21 10:45N 51°46' E 005°44'0 0.0
2018-Apr-21 10:24N 51°46' E 005°44'0 0.0
2018-Apr-21 09:58N 51°46' E 005°44'0 0.0
2018-Apr-21 08:14N 51°46' E 005°44'0 0.0
2018-Apr-21 07:38N 51°46' E 005°44'0 0.0
2018-Apr-21 07:23N 51°46' E 005°44'0 0.0
2018-Apr-21 06:59N 51°46' E 005°44'0 0.0
2018-Apr-21 06:29N 51°46' E 005°44'0 0.0
2018-Apr-21 06:00N 51°46' E 005°44'0 0.0
2018-Apr-21 05:30N 51°46' E 005°44'0 0.0
2018-Apr-21 04:59N 51°46' E 005°44'0 0.0
2018-Apr-21 04:30N 51°46' E 005°44'0 0.0
2018-Apr-21 04:00N 51°46' E 005°44'0 0.0
2018-Apr-21 03:30N 51°46' E 005°44'0 0.0
2018-Apr-21 03:00N 51°46' E 005°44'0 0.0
2018-Apr-21 02:30N 51°46' E 005°44'0 0.0
2018-Apr-21 02:00N 51°46' E 005°44'0 0.0
2018-Apr-21 01:30N 51°46' E 005°44'0 0.0
2018-Apr-21 01:01N 51°46' E 005°44'0 0.0
2018-Apr-21 00:31N 51°46' E 005°44'0 0.0
2018-Apr-21 00:01N 51°46' E 005°44'0 0.0
2018-Apr-20 23:30N 51°46' E 005°44'0 0.0
2018-Apr-20 23:00N 51°46' E 005°44'0 0.0
2018-Apr-20 22:29N 51°46' E 005°44'0 0.0
2018-Apr-20 21:42N 51°46' E 005°44'0 0.0
2018-Apr-20 21:30N 51°46' E 005°44'0 0.0
2018-Apr-20 20:54N 51°46' E 005°44'0 0.0
2018-Apr-20 20:21N 51°46' E 005°44'0 0.0
2018-Apr-20 19:50N 51°46' E 005°44'0 0.0
2018-Apr-20 19:30N 51°46' E 005°44'0 0.0
2018-Apr-20 19:00N 51°46' E 005°44'0 0.0
2018-Apr-20 18:30N 51°46' E 005°44'0 0.0
2018-Apr-20 18:00N 51°46' E 005°44'0 0.0
2018-Apr-20 17:31N 51°46' E 005°44'0 0.0
2018-Apr-20 17:00N 51°46' E 005°44'0 0.0
2018-Apr-20 16:31N 51°46' E 005°44'0 0.0
2018-Apr-20 15:59N 51°46' E 005°44'0 0.0
2018-Apr-20 15:29N 51°46' E 005°44'0 0.0
2018-Apr-20 14:59N 51°46' E 005°44'0 0.0
2018-Apr-20 14:30N 51°46' E 005°44'0 0.0
2018-Apr-20 14:00N 51°46' E 005°44'0 0.0
2018-Apr-20 13:30N 51°46' E 005°44'0 0.0
2018-Apr-20 12:59N 51°46' E 005°44'0 0.0
2018-Apr-20 12:30N 51°46' E 005°44'0 0.0
2018-Apr-20 12:00N 51°46' E 005°44'0 0.0
2018-Apr-20 11:30N 51°46' E 005°44'0 0.0
2018-Apr-20 11:00N 51°46' E 005°44'0 0.0
2018-Apr-20 10:30N 51°46' E 005°44'0 0.0
2018-Apr-20 10:00N 51°46' E 005°44'0 0.0
2018-Apr-20 09:30N 51°46' E 005°44'0 0.0
2018-Apr-20 08:58N 51°46' E 005°44'0 0.0
2018-Apr-20 08:28N 51°46' E 005°44'0 0.0
2018-Apr-20 07:57N 51°46' E 005°44'0 0.2
2018-Apr-20 07:30N 51°46' E 005°44'0 0.5
2018-Apr-20 07:00N 51°46' E 005°44'0 0.1
2018-Apr-20 06:30N 51°46' E 005°44'3 6.7
2018-Apr-20 06:00N 51°48' E 005°39'4 7.9
2018-Apr-20 05:30N 51°50' E 005°34'3 6.1
2018-Apr-20 05:00N 51°49' E 005°29'1 2.5
2018-Apr-20 04:30N 51°49' E 005°27'0 0.3
2018-Apr-20 04:00N 51°49' E 005°27'0 0.0
2018-Apr-20 03:30N 51°49' E 005°27'0 0.0
2018-Apr-20 03:00N 51°49' E 005°27'0 0.0
2018-Apr-20 02:30N 51°49' E 005°27'0 0.0
2018-Apr-20 02:01N 51°49' E 005°27'0 0.0
2018-Apr-20 01:31N 51°49' E 005°27'0 0.0
2018-Apr-20 01:01N 51°49' E 005°27'0 0.0
2018-Apr-20 00:30N 51°49' E 005°27'0 0.0
2018-Apr-20 00:00N 51°49' E 005°27'0 0.0
2018-Apr-19 23:31N 51°49' E 005°27'0 0.0
2018-Apr-19 23:00N 51°49' E 005°27'0 0.0
2018-Apr-19 22:31N 51°49' E 005°27'0 0.0
2018-Apr-19 21:59N 51°49' E 005°27'0 0.0
2018-Apr-19 21:30N 51°49' E 005°27'0 0.0
2018-Apr-19 21:00N 51°49' E 005°27'0 0.0
2018-Apr-19 20:30N 51°49' E 005°27'2 4.1
2018-Apr-19 20:00N 51°49' E 005°24'4 7.1
2018-Apr-19 19:30N 51°45' E 005°21'1 2.9
2018-Apr-19 19:00N 51°44' E 005°20'3 4.9
2018-Apr-19 18:29N 51°42' E 005°22'1 2.4
2018-Apr-19 18:00N 51°41' E 005°22'3 6.7
2018-Apr-19 17:30N 51°39' E 005°27'2 3.6
2018-Apr-19 17:00N 51°38' E 005°29'1 1.9
2018-Apr-19 16:29N 51°37' E 005°30'0 0.0
2018-Apr-19 16:00N 51°37' E 005°30'0 0.0
2018-Apr-19 15:30N 51°37' E 005°30'0 0.0
2018-Apr-19 15:00N 51°37' E 005°30'0 0.0
2018-Apr-19 14:30N 51°37' E 005°30'0 0.0
2018-Apr-19 14:00N 51°37' E 005°30'0 0.0
2018-Apr-19 13:30N 51°37' E 005°30'0 0.0
2018-Apr-19 13:00N 51°37' E 005°30'0 0.0
2018-Apr-19 12:30N 51°37' E 005°30'0 0.0
2018-Apr-19 12:00N 51°37' E 005°30'0 0.0
2018-Apr-19 09:48N 51°37' E 005°30'0 0.0
2018-Apr-19 08:24N 51°37' E 005°30'0 0.2
2018-Apr-19 07:59N 51°37' E 005°30'0 0.0
2018-Apr-19 07:18N 51°37' E 005°30'0 0.0
2018-Apr-19 06:58N 51°37' E 005°30'0 0.0
2018-Apr-19 06:07N 51°37' E 005°30'0 0.0
2018-Apr-19 05:55N 51°37' E 005°30'0 0.0
2018-Apr-19 05:30N 51°37' E 005°30'0 0.0
2018-Apr-19 04:56N 51°37' E 005°30'0 0.0
2018-Apr-19 04:28N 51°37' E 005°30'0 0.0
2018-Apr-19 04:00N 51°37' E 005°30'0 0.0
2018-Apr-19 03:28N 51°37' E 005°30'0 0.0
2018-Apr-19 03:00N 51°37' E 005°30'0 0.0
2018-Apr-19 02:29N 51°37' E 005°30'0 0.0
2018-Apr-19 02:00N 51°37' E 005°30'0 0.0
2018-Apr-19 01:30N 51°37' E 005°30'0 0.0
2018-Apr-19 01:00N 51°37' E 005°30'0 0.0
2018-Apr-19 00:30N 51°37' E 005°30'0 0.0
2018-Apr-19 00:00N 51°37' E 005°30'0 0.0
2018-Apr-18 23:30N 51°37' E 005°30'0 0.0
2018-Apr-18 23:00N 51°37' E 005°30'0 0.0
2018-Apr-18 22:29N 51°37' E 005°30'0 0.0
2018-Apr-18 21:59N 51°37' E 005°30'0 0.0
2018-Apr-18 21:30N 51°37' E 005°30'0 0.1
2018-Apr-18 19:31N 51°37' E 005°30'0 4.6
2018-Apr-18 19:30N 51°38' E 005°30'2 4.8
2018-Apr-18 19:00N 51°39' E 005°27'0 0.5
2018-Apr-18 18:30N 51°39' E 005°26'0 0.0
2018-Apr-18 18:00N 51°39' E 005°26'0 0.0
2018-Apr-18 17:30N 51°39' E 005°26'0 0.0
2018-Apr-18 17:00N 51°39' E 005°26'0 0.0
2018-Apr-18 16:30N 51°39' E 005°26'0 0.0
2018-Apr-18 16:00N 51°39' E 005°26'0 0.0
2018-Apr-18 15:30N 51°39' E 005°26'0 0.0
2018-Apr-18 15:00N 51°39' E 005°26'0 0.0
2018-Apr-18 14:30N 51°39' E 005°26'0 0.0
2018-Apr-18 14:00N 51°39' E 005°26'0 0.0
2018-Apr-18 13:30N 51°39' E 005°26'0 0.0
2018-Apr-18 13:00N 51°39' E 005°26'0 0.0
2018-Apr-18 12:30N 51°39' E 005°26'0 0.0
2018-Apr-18 12:00N 51°39' E 005°26'0 0.0
2018-Apr-18 11:30N 51°39' E 005°26'0 0.0
2018-Apr-18 11:00N 51°39' E 005°26'0 0.0
2018-Apr-18 10:30N 51°39' E 005°26'0 0.0
2018-Apr-18 10:00N 51°39' E 005°26'0 0.0
2018-Apr-18 09:30N 51°39' E 005°26'0 0.0
2018-Apr-18 09:00N 51°39' E 005°26'0 0.0
2018-Apr-18 08:30N 51°39' E 005°26'0 0.0
2018-Apr-18 08:00N 51°39' E 005°26'0 0.0
2018-Apr-18 07:30N 51°39' E 005°26'0 0.0
2018-Apr-18 07:00N 51°39' E 005°26'0 0.0
2018-Apr-18 06:30N 51°39' E 005°26'0 0.0
2018-Apr-18 06:00N 51°39' E 005°26'0 0.0
2018-Apr-18 05:30N 51°39' E 005°26'0 0.0
2018-Apr-18 05:00N 51°39' E 005°26'0 0.0
2018-Apr-18 04:30N 51°39' E 005°26'0 0.0
2018-Apr-18 04:00N 51°39' E 005°26'0 0.0
2018-Apr-18 03:30N 51°39' E 005°26'0 0.0
2018-Apr-18 03:00N 51°39' E 005°26'0 0.0
2018-Apr-18 02:30N 51°39' E 005°26'0 0.0
2018-Apr-18 02:00N 51°39' E 005°26'0 0.0
2018-Apr-18 01:30N 51°39' E 005°26'0 0.0
2018-Apr-18 01:00N 51°39' E 005°26'0 0.0
2018-Apr-18 00:30N 51°39' E 005°26'0 0.0
2018-Apr-18 00:00N 51°39' E 005°26'0 0.0
2018-Apr-17 23:30N 51°39' E 005°26'0 0.0
2018-Apr-17 23:00N 51°39' E 005°26'0 0.0
2018-Apr-17 22:30N 51°39' E 005°26'0 0.0
2018-Apr-17 22:00N 51°39' E 005°26'0 0.0
2018-Apr-17 21:30N 51°39' E 005°26'0 0.0
2018-Apr-17 21:00N 51°39' E 005°26'0 0.0
2018-Apr-17 20:30N 51°39' E 005°26'0 0.0
2018-Apr-17 20:00N 51°39' E 005°26'0 0.0
2018-Apr-17 19:30N 51°39' E 005°26'0 0.0
2018-Apr-17 19:00N 51°39' E 005°26'0 0.0
2018-Apr-17 18:30N 51°39' E 005°26'0 0.0
2018-Apr-17 18:00N 51°39' E 005°26'0 0.0
2018-Apr-17 17:30N 51°39' E 005°26'0 0.0
2018-Apr-17 17:00N 51°39' E 005°26'0 0.0
2018-Apr-17 16:30N 51°39' E 005°26'0 0.0
2018-Apr-17 16:00N 51°39' E 005°26'0 0.0
2018-Apr-17 15:30N 51°39' E 005°26'0 0.0
2018-Apr-17 15:00N 51°39' E 005°26'0 0.0
2018-Apr-17 14:30N 51°39' E 005°26'0 0.0
2018-Apr-17 14:00N 51°39' E 005°26'0 0.0
2018-Apr-17 13:30N 51°39' E 005°26'0 0.0
2018-Apr-17 13:00N 51°39' E 005°26'0 0.0
2018-Apr-17 12:30N 51°39' E 005°26'0 0.0
2018-Apr-17 12:00N 51°39' E 005°26'0 0.0
2018-Apr-17 11:30N 51°39' E 005°26'1 1.2
2018-Apr-17 11:00N 51°39' E 005°25'3 5.0
2018-Apr-17 10:30N 51°41' E 005°22'1 2.2
2018-Apr-17 09:58N 51°42' E 005°22'2 4.2
2018-Apr-17 09:30N 51°44' E 005°20'1 2.0
2018-Apr-17 09:00N 51°45' E 005°20'3 5.7
2018-Apr-17 08:24N 51°44' E 005°14'7 6.5
2018-Apr-17 07:24N 51°43' E 005°04'3 6.9
2018-Apr-17 06:59N 51°43' E 004°59'3 7.0
2018-Apr-17 06:30N 51°43' E 004°54'3 7.1
2018-Apr-17 06:00N 51°43' E 004°48'4 7.2
2018-Apr-17 05:30N 51°43' E 004°42'4 7.5
2018-Apr-17 05:00N 51°43' E 004°36'4 7.2
2018-Apr-17 04:30N 51°42' E 004°31'3 5.2
2018-Apr-17 04:00N 51°42' E 004°27'0 0.0
2018-Apr-17 03:30N 51°42' E 004°27'0 0.0
2018-Apr-17 03:00N 51°42' E 004°27'0 0.0
2018-Apr-17 02:29N 51°42' E 004°27'0 0.0
2018-Apr-17 02:00N 51°42' E 004°27'0 0.0
2018-Apr-17 01:30N 51°42' E 004°27'0 0.0
2018-Apr-17 01:00N 51°42' E 004°27'0 0.0
2018-Apr-17 00:30N 51°42' E 004°27'0 0.0
2018-Apr-17 00:00N 51°42' E 004°27'0 0.0
2018-Apr-16 23:30N 51°42' E 004°27'0 0.0
2018-Apr-16 22:59N 51°42' E 004°27'0 0.0
2018-Apr-16 22:30N 51°42' E 004°27'0 0.0
2018-Apr-16 22:00N 51°42' E 004°27'0 0.0
2018-Apr-16 21:29N 51°42' E 004°27'0 0.1
2018-Apr-16 21:00N 51°42' E 004°27'1 2.0
2018-Apr-16 20:29N 51°42' E 004°25'22 3.9
2018-Apr-16 14:48N 51°26' E 003°60'3 8.6
2018-Apr-16 14:30N 51°24' E 003°58'5 9.6
2018-Apr-16 14:00N 51°21' E 003°52'2 4.2
2018-Apr-16 13:30N 51°20' E 003°49'0 0.5
2018-Apr-16 13:00N 51°20' E 003°49'1 2.5
2018-Apr-16 12:30N 51°19' E 003°50'4 8.5
2018-Apr-16 12:00N 51°14' E 003°49'4 7.9
2018-Apr-16 11:30N 51°11' E 003°48'2 4.7
2018-Apr-16 11:00N 51°08' E 003°47'0 0.0
2018-Apr-16 10:31N 51°08' E 003°47'0 0.0
2018-Apr-16 09:52N 51°08' E 003°47'0 0.0
2018-Apr-16 09:27N 51°08' E 003°47'  
Track history (hours):
 
Tides and Currents Weather Stations Pressure Air Temp Water Temp Dewpoint Dewpoint Depression Visibility Wind Speed Wind Dir Waves Ship Positions

Hamaritha

Last reported at 2018-Apr-26 09:26 UTC. Time now 2018-Apr-26 09:37 UTC.
Position N 51°22' E 006°40'.

Length 86 m.

Type: Ship. MMSI: 244700691.

Date/timePositionNaut miles runAvg speedWind from/ knotsBaromVisibWave heightAir tempDewpointWater temp
2018-Apr-26 09:26N 51°22' E 006°40'2 4.4
2018-Apr-26 09:00N 51°23' E 006°43'2 4.3
2018-Apr-26 08:29N 51°25' E 006°44'2 4.5
2018-Apr-26 08:00N 51°27' E 006°43'2 3.4
2018-Apr-26 07:30N 51°28' E 006°42'2 3.1
2018-Apr-26 07:00N 51°30' E 006°42'2 3.4
2018-Apr-26 06:30N 51°31' E 006°42'2 4.0
2018-Apr-26 06:00N 51°33' E 006°41'2 3.5
2018-Apr-26 05:30N 51°35' E 006°39'2 4.0
2018-Apr-26 04:59N 51°34' E 006°36'2 5.1
2018-Apr-26 04:30N 51°37' E 006°35'2 4.5
2018-Apr-26 04:00N 51°39' E 006°36'2 4.5
2018-Apr-26 03:30N 51°40' E 006°32'2 4.9
2018-Apr-26 03:00N 51°40' E 006°29'1 2.0
2018-Apr-26 02:30N 51°41' E 006°28'0 0.0
2018-Apr-26 01:58N 51°41' E 006°28'0 0.0
2018-Apr-26 01:30N 51°41' E 006°28'0 0.0
2018-Apr-26 01:00N 51°41' E 006°28'0 0.0
2018-Apr-26 00:26N 51°41' E 006°28'0 0.0
2018-Apr-25 23:59N 51°41' E 006°28'0 0.0
2018-Apr-25 23:30N 51°41' E 006°28'0 0.0
2018-Apr-25 22:57N 51°41' E 006°28'0 0.0
2018-Apr-25 22:30N 51°41' E 006°28'0 0.0
2018-Apr-25 22:00N 51°41' E 006°28'0 0.0
2018-Apr-25 21:30N 51°41' E 006°28'0 0.0
2018-Apr-25 21:00N 51°41' E 006°28'0 0.5
2018-Apr-25 20:26N 51°41' E 006°28'11 4.4
2018-Apr-25 17:50N 51°49' E 006°15'2 5.0
2018-Apr-25 17:30N 51°50' E 006°13'2 4.8
2018-Apr-25 17:00N 51°51' E 006°09'3 5.3
2018-Apr-25 16:30N 51°51' E 006°05'3 5.7
2018-Apr-25 16:00N 51°53' E 006°01'3 4.3
2018-Apr-25 15:20N 51°52' E 005°57'31 4.1
2018-Apr-25 07:46N 51°22' E 006°09'2 6.5
2018-Apr-25 07:30N 51°21' E 006°07'1 2.5
2018-Apr-25 06:56N 51°19' E 006°07'3 7.1
2018-Apr-25 06:30N 51°17' E 006°03'3 6.3
2018-Apr-25 06:00N 51°15' E 006°00'3 7.0
2018-Apr-25 05:30N 51°12' E 005°57'2 3.4
2018-Apr-25 05:00N 51°11' E 005°55'3 3.8
2018-Apr-25 04:20N 51°08' E 005°53'1 2.0
2018-Apr-25 04:00N 51°08' E 005°52'15 1.8
2018-Apr-24 19:56N 50°54' E 005°43'2 5.3
2018-Apr-24 19:30N 50°52' E 005°42'5 4.8
2018-Apr-24 18:34N 50°48' E 005°41'0 0.0
2018-Apr-24 18:30N 50°48' E 005°41'0 0.4
2018-Apr-24 17:50N 50°47' E 005°41'0 0.0
2018-Apr-24 17:29N 50°47' E 005°41'1 0.0
2018-Apr-23 16:38N 50°48' E 005°41'1 5.7
2018-Apr-23 16:30N 50°49' E 005°42'4 6.8
2018-Apr-23 15:53N 50°53' E 005°42'13 5.3
2018-Apr-23 13:26N 51°05' E 005°50'3 8.0
2018-Apr-23 13:00N 51°08' E 005°52'1 2.0
2018-Apr-23 12:27N 51°09' E 005°53'2 3.9
2018-Apr-23 11:54N 51°11' E 005°55'3 6.7
2018-Apr-23 11:30N 51°13' E 005°58'4 7.2
2018-Apr-23 11:00N 51°16' E 006°01'4 7.0
2018-Apr-23 10:30N 51°18' E 006°05'3 4.3
2018-Apr-23 09:55N 51°20' E 006°07'28 5.5
2018-Apr-23 04:48N 51°45' E 005°47'2 5.6
2018-Apr-23 04:30N 51°46' E 005°44'0 0.2
2018-Apr-23 04:00N 51°46' E 005°44'0 0.0
2018-Apr-23 03:30N 51°46' E 005°44'0 0.0
2018-Apr-23 03:00N 51°46' E 005°44'0 0.0
2018-Apr-23 02:30N 51°46' E 005°44'0 0.0
2018-Apr-23 02:00N 51°46' E 005°44'0 0.0
2018-Apr-23 01:30N 51°46' E 005°44'0 0.0
2018-Apr-23 01:00N 51°46' E 005°44'0 0.0
2018-Apr-23 00:29N 51°46' E 005°44'0 0.0
2018-Apr-23 00:00N 51°46' E 005°44'0 0.0
2018-Apr-22 23:30N 51°46' E 005°44'0 0.0
2018-Apr-22 23:00N 51°46' E 005°44'0 0.0
2018-Apr-22 22:30N 51°46' E 005°44'0 0.0
2018-Apr-22 22:00N 51°46' E 005°44'0 0.0
2018-Apr-22 21:30N 51°46' E 005°44'0 0.0
2018-Apr-22 21:00N 51°46' E 005°44'0 0.0
2018-Apr-22 20:22N 51°46' E 005°44'0 0.0
2018-Apr-22 20:00N 51°46' E 005°44'0 0.0
2018-Apr-22 19:16N 51°46' E 005°44'0 0.0
2018-Apr-22 18:52N 51°46' E 005°44'0 0.0
2018-Apr-22 18:22N 51°46' E 005°44'0 0.0
2018-Apr-22 17:59N 51°46' E 005°44'0 0.0
2018-Apr-22 17:23N 51°46' E 005°44'0 0.0
2018-Apr-22 16:44N 51°46' E 005°44'0 0.0
2018-Apr-22 16:27N 51°46' E 005°44'0 0.0
2018-Apr-22 16:00N 51°46' E 005°44'0 0.0
2018-Apr-22 15:29N 51°46' E 005°44'0 0.0
2018-Apr-22 15:00N 51°46' E 005°44'0 0.0
2018-Apr-22 14:25N 51°46' E 005°44'0 0.0
2018-Apr-22 13:56N 51°46' E 005°44'0 0.0
2018-Apr-22 13:28N 51°46' E 005°44'0 0.0
2018-Apr-22 12:51N 51°46' E 005°44'0 0.0
2018-Apr-22 12:30N 51°46' E 005°44'0 0.0
2018-Apr-22 11:52N 51°46' E 005°44'0 0.0
2018-Apr-22 11:26N 51°46' E 005°44'0 0.0
2018-Apr-22 04:45N 51°46' E 005°44'0 0.0
2018-Apr-22 04:30N 51°46' E 005°44'0 0.0
2018-Apr-22 04:00N 51°46' E 005°44'0 0.0
2018-Apr-22 03:30N 51°46' E 005°44'0 0.0
2018-Apr-22 03:00N 51°46' E 005°44'0 0.0
2018-Apr-22 02:30N 51°46' E 005°44'0 0.0
2018-Apr-22 02:00N 51°46' E 005°44'0 0.0
2018-Apr-22 01:30N 51°46' E 005°44'0 0.0
2018-Apr-22 01:00N 51°46' E 005°44'0 0.0
2018-Apr-22 00:30N 51°46' E 005°44'0 0.0
2018-Apr-21 23:59N 51°46' E 005°44'0 0.0
2018-Apr-21 23:30N 51°46' E 005°44'0 0.0
2018-Apr-21 23:00N 51°46' E 005°44'0 0.0
2018-Apr-21 22:19N 51°46' E 005°44'0 0.0
2018-Apr-21 22:00N 51°46' E 005°44'0 0.0
2018-Apr-21 21:30N 51°46' E 005°44'0 0.0
2018-Apr-21 20:59N 51°46' E 005°44'0 0.0
2018-Apr-21 19:59N 51°46' E 005°44'0 0.0
2018-Apr-21 19:30N 51°46' E 005°44'0 0.0
2018-Apr-21 18:50N 51°46' E 005°44'0 0.0
2018-Apr-21 18:30N 51°46' E 005°44'0 0.0
2018-Apr-21 17:58N 51°46' E 005°44'0 0.0
2018-Apr-21 17:29N 51°46' E 005°44'0 0.0
2018-Apr-21 16:56N 51°46' E 005°44'0 0.0
2018-Apr-21 16:26N 51°46' E 005°44'0 0.0
2018-Apr-21 15:54N 51°46' E 005°44'0 0.0
2018-Apr-21 15:28N 51°46' E 005°44'0 0.0
2018-Apr-21 14:52N 51°46' E 005°44'0 0.0
2018-Apr-21 14:25N 51°46' E 005°44'0 0.0
2018-Apr-21 13:58N 51°46' E 005°44'0 0.0
2018-Apr-21 13:28N 51°46' E 005°44'0 0.0
2018-Apr-21 10:45N 51°46' E 005°44'0 0.0
2018-Apr-21 10:24N 51°46' E 005°44'0 0.0
2018-Apr-21 09:58N 51°46' E 005°44'0 0.0
2018-Apr-21 08:14N 51°46' E 005°44'0 0.0
2018-Apr-21 07:38N 51°46' E 005°44'0 0.0
2018-Apr-21 07:23N 51°46' E 005°44'0 0.0
2018-Apr-21 06:59N 51°46' E 005°44'0 0.0
2018-Apr-21 06:29N 51°46' E 005°44'0 0.0
2018-Apr-21 06:00N 51°46' E 005°44'0 0.0
2018-Apr-21 05:30N 51°46' E 005°44'0 0.0
2018-Apr-21 04:59N 51°46' E 005°44'0 0.0
2018-Apr-21 04:30N 51°46' E 005°44'0 0.0
2018-Apr-21 04:00N 51°46' E 005°44'0 0.0
2018-Apr-21 03:30N 51°46' E 005°44'0 0.0
2018-Apr-21 03:00N 51°46' E 005°44'0 0.0
2018-Apr-21 02:30N 51°46' E 005°44'0 0.0
2018-Apr-21 02:00N 51°46' E 005°44'0 0.0
2018-Apr-21 01:30N 51°46' E 005°44'0 0.0
2018-Apr-21 01:01N 51°46' E 005°44'0 0.0
2018-Apr-21 00:31N 51°46' E 005°44'0 0.0
2018-Apr-21 00:01N 51°46' E 005°44'0 0.0
2018-Apr-20 23:30N 51°46' E 005°44'0 0.0
2018-Apr-20 23:00N 51°46' E 005°44'0 0.0
2018-Apr-20 22:29N 51°46' E 005°44'0 0.0
2018-Apr-20 21:42N 51°46' E 005°44'0 0.0
2018-Apr-20 21:30N 51°46' E 005°44'0 0.0
2018-Apr-20 20:54N 51°46' E 005°44'0 0.0
2018-Apr-20 20:21N 51°46' E 005°44'0 0.0
2018-Apr-20 19:50N 51°46' E 005°44'0 0.0
2018-Apr-20 19:30N 51°46' E 005°44'0 0.0
2018-Apr-20 19:00N 51°46' E 005°44'0 0.0
2018-Apr-20 18:30N 51°46' E 005°44'0 0.0
2018-Apr-20 18:00N 51°46' E 005°44'0 0.0
2018-Apr-20 17:31N 51°46' E 005°44'0 0.0
2018-Apr-20 17:00N 51°46' E 005°44'0 0.0
2018-Apr-20 16:31N 51°46' E 005°44'0 0.0
2018-Apr-20 15:59N 51°46' E 005°44'0 0.0
2018-Apr-20 15:29N 51°46' E 005°44'0 0.0
2018-Apr-20 14:59N 51°46' E 005°44'0 0.0
2018-Apr-20 14:30N 51°46' E 005°44'0 0.0
2018-Apr-20 14:00N 51°46' E 005°44'0 0.0
2018-Apr-20 13:30N 51°46' E 005°44'0 0.0
2018-Apr-20 12:59N 51°46' E 005°44'0 0.0
2018-Apr-20 12:30N 51°46' E 005°44'0 0.0
2018-Apr-20 12:00N 51°46' E 005°44'0 0.0
2018-Apr-20 11:30N 51°46' E 005°44'0 0.0
2018-Apr-20 11:00N 51°46' E 005°44'0 0.0
2018-Apr-20 10:30N 51°46' E 005°44'0 0.0
2018-Apr-20 10:00N 51°46' E 005°44'0 0.0
2018-Apr-20 09:30N 51°46' E 005°44'0 0.0
2018-Apr-20 08:58N 51°46' E 005°44'0 0.0
2018-Apr-20 08:28N 51°46' E 005°44'0 0.0
2018-Apr-20 07:57N 51°46' E 005°44'0 0.2
2018-Apr-20 07:30N 51°46' E 005°44'0 0.5
2018-Apr-20 07:00N 51°46' E 005°44'0 0.1
2018-Apr-20 06:30N 51°46' E 005°44'3 6.7
2018-Apr-20 06:00N 51°48' E 005°39'4 7.9
2018-Apr-20 05:30N 51°50' E 005°34'3 6.1
2018-Apr-20 05:00N 51°49' E 005°29'1 2.5
2018-Apr-20 04:30N 51°49' E 005°27'0 0.3
2018-Apr-20 04:00N 51°49' E 005°27'0 0.0
2018-Apr-20 03:30N 51°49' E 005°27'0 0.0
2018-Apr-20 03:00N 51°49' E 005°27'0 0.0
2018-Apr-20 02:30N 51°49' E 005°27'0 0.0
2018-Apr-20 02:01N 51°49' E 005°27'0 0.0
2018-Apr-20 01:31N 51°49' E 005°27'0 0.0
2018-Apr-20 01:01N 51°49' E 005°27'0 0.0
2018-Apr-20 00:30N 51°49' E 005°27'0 0.0
2018-Apr-20 00:00N 51°49' E 005°27'0 0.0
2018-Apr-19 23:31N 51°49' E 005°27'0 0.0
2018-Apr-19 23:00N 51°49' E 005°27'0 0.0
2018-Apr-19 22:31N 51°49' E 005°27'0 0.0
2018-Apr-19 21:59N 51°49' E 005°27'0 0.0
2018-Apr-19 21:30N 51°49' E 005°27'0 0.0
2018-Apr-19 21:00N 51°49' E 005°27'0 0.0
2018-Apr-19 20:30N 51°49' E 005°27'2 4.1
2018-Apr-19 20:00N 51°49' E 005°24'4 7.1
2018-Apr-19 19:30N 51°45' E 005°21'1 2.9
2018-Apr-19 19:00N 51°44' E 005°20'3 4.9
2018-Apr-19 18:29N 51°42' E 005°22'1 2.4
2018-Apr-19 18:00N 51°41' E 005°22'3 6.7
2018-Apr-19 17:30N 51°39' E 005°27'2 3.6
2018-Apr-19 17:00N 51°38' E 005°29'1 1.9
2018-Apr-19 16:29N 51°37' E 005°30'0 0.0
2018-Apr-19 16:00N 51°37' E 005°30'0 0.0
2018-Apr-19 15:30N 51°37' E 005°30'0 0.0
2018-Apr-19 15:00N 51°37' E 005°30'0 0.0
2018-Apr-19 14:30N 51°37' E 005°30'0 0.0
2018-Apr-19 14:00N 51°37' E 005°30'0 0.0
2018-Apr-19 13:30N 51°37' E 005°30'0 0.0
2018-Apr-19 13:00N 51°37' E 005°30'0 0.0
2018-Apr-19 12:30N 51°37' E 005°30'0 0.0
2018-Apr-19 12:00N 51°37' E 005°30'0 0.0
2018-Apr-19 09:48N 51°37' E 005°30'0 0.0
2018-Apr-19 08:24N 51°37' E 005°30'0 0.2
2018-Apr-19 07:59N 51°37' E 005°30'0 0.0
2018-Apr-19 07:18N 51°37' E 005°30'0 0.0
2018-Apr-19 06:58N 51°37' E 005°30'0 0.0
2018-Apr-19 06:07N 51°37' E 005°30'0 0.0
2018-Apr-19 05:55N 51°37' E 005°30'0 0.0
2018-Apr-19 05:30N 51°37' E 005°30'0 0.0
2018-Apr-19 04:56N 51°37' E 005°30'0 0.0
2018-Apr-19 04:28N 51°37' E 005°30'0 0.0
2018-Apr-19 04:00N 51°37' E 005°30'0 0.0
2018-Apr-19 03:28N 51°37' E 005°30'0 0.0
2018-Apr-19 03:00N 51°37' E 005°30'0 0.0
2018-Apr-19 02:29N 51°37' E 005°30'0 0.0
2018-Apr-19 02:00N 51°37' E 005°30'0 0.0
2018-Apr-19 01:30N 51°37' E 005°30'0 0.0
2018-Apr-19 01:00N 51°37' E 005°30'0 0.0
2018-Apr-19 00:30N 51°37' E 005°30'0 0.0
2018-Apr-19 00:00N 51°37' E 005°30'0 0.0
2018-Apr-18 23:30N 51°37' E 005°30'0 0.0
2018-Apr-18 23:00N 51°37' E 005°30'0 0.0
2018-Apr-18 22:29N 51°37' E 005°30'0 0.0
2018-Apr-18 21:59N 51°37' E 005°30'0 0.0
2018-Apr-18 21:30N 51°37' E 005°30'0 0.1
2018-Apr-18 19:31N 51°37' E 005°30'0 4.6
2018-Apr-18 19:30N 51°38' E 005°30'2 4.8
2018-Apr-18 19:00N 51°39' E 005°27'0 0.5
2018-Apr-18 18:30N 51°39' E 005°26'0 0.0
2018-Apr-18 18:00N 51°39' E 005°26'0 0.0
2018-Apr-18 17:30N 51°39' E 005°26'0 0.0
2018-Apr-18 17:00N 51°39' E 005°26'0 0.0
2018-Apr-18 16:30N 51°39' E 005°26'0 0.0
2018-Apr-18 16:00N 51°39' E 005°26'0 0.0
2018-Apr-18 15:30N 51°39' E 005°26'0 0.0
2018-Apr-18 15:00N 51°39' E 005°26'0 0.0
2018-Apr-18 14:30N 51°39' E 005°26'0 0.0
2018-Apr-18 14:00N 51°39' E 005°26'0 0.0
2018-Apr-18 13:30N 51°39' E 005°26'0 0.0
2018-Apr-18 13:00N 51°39' E 005°26'0 0.0
2018-Apr-18 12:30N 51°39' E 005°26'0 0.0
2018-Apr-18 12:00N 51°39' E 005°26'0 0.0
2018-Apr-18 11:30N 51°39' E 005°26'0 0.0
2018-Apr-18 11:00N 51°39' E 005°26'0 0.0
2018-Apr-18 10:30N 51°39' E 005°26'0 0.0
2018-Apr-18 10:00N 51°39' E 005°26'0 0.0
2018-Apr-18 09:30N 51°39' E 005°26'0 0.0
2018-Apr-18 09:00N 51°39' E 005°26'0 0.0
2018-Apr-18 08:30N 51°39' E 005°26'0 0.0
2018-Apr-18 08:00N 51°39' E 005°26'0 0.0
2018-Apr-18 07:30N 51°39' E 005°26'0 0.0
2018-Apr-18 07:00N 51°39' E 005°26'0 0.0
2018-Apr-18 06:30N 51°39' E 005°26'0 0.0
2018-Apr-18 06:00N 51°39' E 005°26'0 0.0
2018-Apr-18 05:30N 51°39' E 005°26'0 0.0
2018-Apr-18 05:00N 51°39' E 005°26'0 0.0
2018-Apr-18 04:30N 51°39' E 005°26'0 0.0
2018-Apr-18 04:00N 51°39' E 005°26'0 0.0
2018-Apr-18 03:30N 51°39' E 005°26'0 0.0
2018-Apr-18 03:00N 51°39' E 005°26'0 0.0
2018-Apr-18 02:30N 51°39' E 005°26'0 0.0
2018-Apr-18 02:00N 51°39' E 005°26'0 0.0
2018-Apr-18 01:30N 51°39' E 005°26'0 0.0
2018-Apr-18 01:00N 51°39' E 005°26'0 0.0
2018-Apr-18 00:30N 51°39' E 005°26'0 0.0
2018-Apr-18 00:00N 51°39' E 005°26'0 0.0
2018-Apr-17 23:30N 51°39' E 005°26'0 0.0
2018-Apr-17 23:00N 51°39' E 005°26'0 0.0
2018-Apr-17 22:30N 51°39' E 005°26'0 0.0
2018-Apr-17 22:00N 51°39' E 005°26'0 0.0
2018-Apr-17 21:30N 51°39' E 005°26'0 0.0
2018-Apr-17 21:00N 51°39' E 005°26'0 0.0
2018-Apr-17 20:30N 51°39' E 005°26'0 0.0
2018-Apr-17 20:00N 51°39' E 005°26'0 0.0
2018-Apr-17 19:30N 51°39' E 005°26'0 0.0
2018-Apr-17 19:00N 51°39' E 005°26'0 0.0
2018-Apr-17 18:30N 51°39' E 005°26'0 0.0
2018-Apr-17 18:00N 51°39' E 005°26'0 0.0
2018-Apr-17 17:30N 51°39' E 005°26'0 0.0
2018-Apr-17 17:00N 51°39' E 005°26'0 0.0
2018-Apr-17 16:30N 51°39' E 005°26'0 0.0
2018-Apr-17 16:00N 51°39' E 005°26'0 0.0
2018-Apr-17 15:30N 51°39' E 005°26'0 0.0
2018-Apr-17 15:00N 51°39' E 005°26'0 0.0
2018-Apr-17 14:30N 51°39' E 005°26'0 0.0
2018-Apr-17 14:00N 51°39' E 005°26'0 0.0
2018-Apr-17 13:30N 51°39' E 005°26'0 0.0
2018-Apr-17 13:00N 51°39' E 005°26'0 0.0
2018-Apr-17 12:30N 51°39' E 005°26'0 0.0
2018-Apr-17 12:00N 51°39' E 005°26'0 0.0
2018-Apr-17 11:30N 51°39' E 005°26'1 1.2
2018-Apr-17 11:00N 51°39' E 005°25'3 5.0
2018-Apr-17 10:30N 51°41' E 005°22'1 2.2
2018-Apr-17 09:58N 51°42' E 005°22'2 4.2
2018-Apr-17 09:30N 51°44' E 005°20'1 2.0
2018-Apr-17 09:00N 51°45' E 005°20'3 5.7
2018-Apr-17 08:24N 51°44' E 005°14'7 6.5
2018-Apr-17 07:24N 51°43' E 005°04'3 6.9
2018-Apr-17 06:59N 51°43' E 004°59'3 7.0
2018-Apr-17 06:30N 51°43' E 004°54'3 7.1
2018-Apr-17 06:00N 51°43' E 004°48'4 7.2
2018-Apr-17 05:30N 51°43' E 004°42'4 7.5
2018-Apr-17 05:00N 51°43' E 004°36'4 7.2
2018-Apr-17 04:30N 51°42' E 004°31'3 5.2
2018-Apr-17 04:00N 51°42' E 004°27'0 0.0
2018-Apr-17 03:30N 51°42' E 004°27'0 0.0
2018-Apr-17 03:00N 51°42' E 004°27'0 0.0
2018-Apr-17 02:29N 51°42' E 004°27'0 0.0
2018-Apr-17 02:00N 51°42' E 004°27'0 0.0
2018-Apr-17 01:30N 51°42' E 004°27'0 0.0
2018-Apr-17 01:00N 51°42' E 004°27'0 0.0
2018-Apr-17 00:30N 51°42' E 004°27'0 0.0
2018-Apr-17 00:00N 51°42' E 004°27'0 0.0
2018-Apr-16 23:30N 51°42' E 004°27'0 0.0
2018-Apr-16 22:59N 51°42' E 004°27'0 0.0
2018-Apr-16 22:30N 51°42' E 004°27'0 0.0
2018-Apr-16 22:00N 51°42' E 004°27'0 0.0
2018-Apr-16 21:29N 51°42' E 004°27'0 0.1
2018-Apr-16 21:00N 51°42' E 004°27'1 2.0
2018-Apr-16 20:29N 51°42' E 004°25'22 3.9
2018-Apr-16 14:48N 51°26' E 003°60'3 8.6
2018-Apr-16 14:30N 51°24' E 003°58'5 9.6
2018-Apr-16 14:00N 51°21' E 003°52'2 4.2
2018-Apr-16 13:30N 51°20' E 003°49'0 0.5
2018-Apr-16 13:00N 51°20' E 003°49'1 2.5
2018-Apr-16 12:30N 51°19' E 003°50'4 8.5
2018-Apr-16 12:00N 51°14' E 003°49'4 7.9
2018-Apr-16 11:30N 51°11' E 003°48'2 4.7
2018-Apr-16 11:00N 51°08' E 003°47'0 0.0
2018-Apr-16 10:31N 51°08' E 003°47'0 0.0
2018-Apr-16 09:52N 51°08' E 003°47'0 0.0
2018-Apr-16 09:27N 51°08' E 003°47'  

Dump ship's entire track history